createdAt,value
2018-08-31T00:02:18.699Z,12.00
2018-08-31T00:04:59.002Z,12.27
2018-08-31T00:07:55.691Z,12.23
2018-08-31T00:12:37.631Z,12.80
2018-08-31T00:15:06.728Z,11.57
2018-08-31T00:17:36.280Z,11.40
2018-08-31T00:20:05.541Z,12.80
2018-08-31T00:22:34.333Z,13.23
2018-08-31T00:25:14.251Z,12.33
2018-08-31T00:27:48.216Z,12.50
2018-08-31T00:30:28.091Z,12.47
2018-08-31T00:34:10.518Z,13.83
2018-08-31T00:36:54.746Z,12.70
2018-08-31T00:39:53.686Z,13.13
2018-08-31T00:42:47.840Z,13.03
2018-08-31T00:45:29.253Z,13.93
2018-08-31T00:48:00.578Z,13.27
2018-08-31T00:50:29.942Z,15.00
2018-08-31T00:52:59.109Z,14.37
2018-08-31T00:55:29.784Z,13.80
2018-08-31T00:57:58.620Z,14.20
2018-08-31T01:00:27.454Z,13.50
2018-08-31T01:02:56.301Z,14.07
2018-08-31T01:05:25.189Z,13.37
2018-08-31T01:07:57.381Z,14.13
2018-08-31T01:10:26.282Z,13.63
2018-08-31T01:12:57.048Z,14.43
2018-08-31T01:15:25.863Z,13.67
2018-08-31T01:17:54.684Z,15.10
2018-08-31T01:20:27.479Z,13.80
2018-08-31T01:22:56.285Z,14.30
2018-08-31T01:25:25.261Z,15.07
2018-08-31T01:27:54.368Z,14.40
2018-08-31T01:30:23.214Z,14.33
2018-08-31T01:32:52.034Z,14.90
2018-08-31T01:35:20.861Z,13.00
2018-08-31T01:37:49.666Z,14.10
2018-08-31T01:40:18.462Z,14.40
2018-08-31T01:42:48.287Z,15.10
2018-08-31T01:45:17.095Z,15.07
2018-08-31T01:47:45.943Z,15.00
2018-08-31T01:50:15.580Z,15.87
2018-08-31T01:52:44.472Z,16.37
2018-08-31T01:55:13.227Z,14.70
2018-08-31T01:57:43.766Z,15.93
2018-08-31T02:00:12.611Z,15.20
2018-08-31T02:02:41.426Z,16.10
2018-08-31T02:05:11.470Z,15.77
2018-08-31T02:07:40.291Z,16.27
2018-08-31T02:10:09.091Z,17.73
2018-08-31T02:12:38.009Z,16.40
2018-08-31T02:15:06.868Z,16.73
2018-08-31T02:17:35.679Z,17.50
2018-08-31T02:20:04.821Z,15.80
2018-08-31T02:22:33.631Z,16.17
2018-08-31T02:25:02.410Z,15.30
2018-08-31T02:27:31.876Z,16.07
2018-08-31T02:30:00.687Z,16.67
2018-08-31T02:32:29.558Z,16.87
2018-08-31T02:34:59.997Z,16.03
2018-08-31T02:37:28.869Z,16.30
2018-08-31T02:39:57.701Z,15.50
2018-08-31T02:42:26.782Z,17.07
2018-08-31T02:44:55.610Z,15.10
2018-08-31T02:47:24.447Z,18.97
2018-08-31T02:49:54.078Z,16.47
2018-08-31T02:52:22.947Z,17.87
2018-08-31T02:54:51.785Z,16.70
2018-08-31T02:57:23.863Z,15.33
2018-08-31T02:59:52.661Z,15.13
2018-08-31T03:02:21.533Z,16.50
2018-08-31T03:04:50.362Z,17.30
2018-08-31T03:07:19.138Z,18.37
2018-08-31T03:09:48.001Z,16.57
2018-08-31T03:12:18.556Z,16.40
2018-08-31T03:14:47.380Z,15.87
2018-08-31T03:17:15.762Z,16.23
2018-08-31T03:19:46.312Z,16.03
2018-08-31T03:22:15.130Z,15.90
2018-08-31T03:24:43.940Z,16.80
2018-08-31T03:27:12.852Z,16.47
2018-08-31T03:29:41.704Z,23.67
2018-08-31T03:32:10.513Z,18.27
2018-08-31T03:34:39.692Z,17.17
2018-08-31T03:37:08.501Z,17.80
2018-08-31T03:39:37.303Z,17.87
2018-08-31T03:42:06.686Z,16.80
2018-08-31T03:44:35.481Z,19.27
2018-08-31T03:47:04.365Z,19.00
2018-08-31T03:49:33.333Z,18.77
2018-08-31T03:52:01.772Z,19.27
2018-08-31T03:54:30.573Z,19.73
2018-08-31T03:57:00.526Z,19.33
2018-08-31T03:59:29.463Z,17.37
2018-08-31T04:01:58.277Z,18.27
2018-08-31T04:04:27.353Z,18.50
2018-08-31T04:06:56.189Z,18.93
2018-08-31T04:09:25.076Z,18.97
2018-08-31T04:11:53.917Z,19.53
2018-08-31T04:14:22.733Z,20.50
2018-08-31T04:16:51.109Z,20.83
2018-08-31T04:19:20.154Z,29.83
2018-08-31T04:21:48.968Z,20.90
2018-08-31T04:24:17.660Z,22.33
2018-08-31T04:26:47.542Z,19.43
2018-08-31T04:29:16.367Z,23.43
2018-08-31T04:31:45.194Z,21.70
2018-08-31T04:34:13.741Z,19.40
2018-08-31T04:36:43.194Z,19.77
2018-08-31T04:39:13.251Z,19.60
2018-08-31T04:41:43.820Z,18.53
2018-08-31T04:44:12.737Z,17.63
2018-08-31T04:46:41.787Z,17.37
2018-08-31T04:49:10.817Z,14.53
2018-08-31T04:51:39.637Z,16.40
2018-08-31T04:54:08.445Z,15.10
2018-08-31T04:56:37.500Z,15.90
2018-08-31T04:59:06.361Z,18.67
2018-08-31T05:01:35.155Z,14.90
2018-08-31T05:04:04.334Z,15.43
2018-08-31T05:06:33.186Z,14.47
2018-08-31T05:09:02.369Z,17.27
2018-08-31T05:11:31.142Z,16.10
2018-08-31T05:13:59.994Z,18.37
2018-08-31T05:16:29.689Z,15.43
2018-08-31T05:18:58.485Z,14.27
2018-08-31T05:21:27.360Z,14.50
2018-08-31T05:23:56.261Z,15.53
2018-08-31T05:26:25.667Z,15.57
2018-08-31T05:28:55.059Z,15.63
2018-08-31T05:31:24.886Z,16.60
2018-08-31T05:33:53.805Z,16.23
2018-08-31T05:36:22.632Z,15.57
2018-08-31T05:38:54.669Z,18.50
2018-08-31T05:41:23.470Z,17.07
2018-08-31T05:43:52.295Z,16.87
2018-08-31T05:46:21.299Z,19.20
2018-08-31T05:48:50.137Z,16.93
2018-08-31T05:51:18.927Z,19.20
2018-08-31T05:53:48.527Z,21.23
2018-08-31T05:56:17.876Z,21.10
2018-08-31T05:58:46.692Z,20.17
2018-08-31T06:01:16.835Z,20.97
2018-08-31T06:03:45.641Z,19.57
2018-08-31T06:06:14.475Z,17.90
2018-08-31T06:08:44.155Z,17.03
2018-08-31T06:11:12.955Z,17.33
2018-08-31T06:13:41.385Z,15.30
2018-08-31T06:16:10.886Z,16.77
2018-08-31T06:18:39.705Z,15.93
2018-08-31T06:21:08.537Z,15.27
2018-08-31T06:23:38.399Z,15.37
2018-08-31T06:26:08.108Z,15.83
2018-08-31T06:28:36.925Z,15.13
2018-08-31T06:31:05.911Z,14.80
2018-08-31T06:33:34.697Z,13.70
2018-08-31T06:36:03.123Z,15.60
2018-08-31T06:38:31.973Z,15.03
2018-08-31T06:41:00.781Z,15.90
2018-08-31T06:43:29.594Z,15.27
2018-08-31T06:45:59.159Z,13.30
2018-08-31T06:48:28.019Z,13.03
2018-08-31T06:50:56.820Z,12.47
2018-08-31T06:53:25.910Z,13.03
2018-08-31T06:55:54.729Z,12.70
2018-08-31T06:58:23.567Z,14.80
2018-08-31T07:00:52.635Z,13.13
2018-08-31T07:03:21.456Z,13.40
2018-08-31T07:05:50.281Z,16.30
2018-08-31T07:08:19.257Z,16.57
2018-08-31T07:10:48.030Z,22.70
2018-08-31T07:13:16.848Z,14.43
2018-08-31T07:15:45.911Z,14.37
2018-08-31T07:18:14.750Z,16.43
2018-08-31T07:20:45.085Z,18.23
2018-08-31T07:23:14.857Z,12.13
2018-08-31T07:25:43.654Z,14.00
2018-08-31T07:28:12.488Z,12.47
2018-08-31T07:30:41.315Z,13.57
2018-08-31T07:33:10.133Z,13.03
2018-08-31T07:35:39.009Z,11.33
2018-08-31T07:38:09.742Z,10.60
2018-08-31T07:40:38.555Z,11.53
2018-08-31T07:43:07.499Z,10.10
2018-08-31T07:45:37.388Z,10.33
2018-08-31T07:48:06.215Z,11.70
2018-08-31T07:50:35.018Z,10.20
2018-08-31T07:53:04.803Z,12.73
2018-08-31T07:55:33.618Z,11.57
2018-08-31T07:58:03.186Z,10.93
2018-08-31T08:00:35.022Z,9.63
2018-08-31T08:03:03.875Z,11.13
2018-08-31T08:05:32.812Z,9.93
2018-08-31T08:08:01.981Z,10.00
2018-08-31T08:10:30.774Z,9.40
2018-08-31T08:12:59.562Z,8.17
2018-08-31T08:15:28.368Z,9.77
2018-08-31T08:17:57.158Z,10.40
2018-08-31T08:20:26.248Z,9.73
2018-08-31T08:22:55.405Z,9.13
2018-08-31T08:25:24.261Z,11.33
2018-08-31T08:27:53.074Z,9.50
2018-08-31T08:30:22.135Z,9.63
2018-08-31T08:32:50.937Z,9.10
2018-08-31T08:35:19.743Z,9.23
2018-08-31T08:37:50.439Z,11.20
2018-08-31T08:40:19.219Z,8.87
2018-08-31T08:42:48.021Z,8.67
2018-08-31T08:45:17.634Z,10.20
2018-08-31T08:47:46.453Z,9.13
2018-08-31T08:50:15.305Z,10.27
2018-08-31T08:52:44.357Z,8.20
2018-08-31T08:55:13.145Z,9.10
2018-08-31T08:57:41.965Z,8.57
2018-08-31T09:00:11.386Z,8.43
2018-08-31T09:02:40.241Z,8.80
2018-08-31T09:05:09.077Z,7.73
2018-08-31T09:07:37.924Z,9.00
2018-08-31T09:10:06.800Z,7.63
2018-08-31T09:12:35.581Z,7.43
2018-08-31T09:15:05.214Z,7.10
2018-08-31T09:17:34.070Z,6.57
2018-08-31T09:20:02.939Z,7.77
2018-08-31T09:22:31.695Z,7.33
2018-08-31T09:25:00.588Z,8.33
2018-08-31T09:27:35.984Z,7.53
2018-08-31T09:30:05.041Z,7.50
2018-08-31T09:32:34.114Z,7.30
2018-08-31T09:35:02.899Z,8.47
2018-08-31T09:37:31.812Z,8.60
2018-08-31T09:40:00.875Z,8.40
2018-08-31T09:42:29.748Z,8.00
2018-08-31T09:44:58.555Z,8.10
2018-08-31T09:47:27.685Z,7.93
2018-08-31T09:49:56.486Z,8.27
2018-08-31T09:52:25.274Z,7.83
2018-08-31T09:54:54.430Z,8.87
2018-08-31T09:57:23.281Z,9.90
2018-08-31T09:59:52.055Z,8.97
2018-08-31T10:02:26.703Z,7.83
2018-08-31T10:04:55.502Z,8.53
2018-08-31T10:07:24.284Z,7.60
2018-08-31T10:09:53.303Z,8.30
2018-08-31T10:12:22.155Z,11.13
2018-08-31T10:14:50.961Z,7.93
2018-08-31T10:17:23.075Z,8.47
2018-08-31T10:19:51.880Z,7.80
2018-08-31T10:22:20.675Z,8.23
2018-08-31T10:24:50.537Z,7.80
2018-08-31T10:27:19.359Z,10.30
2018-08-31T10:29:48.143Z,8.10
2018-08-31T10:32:17.026Z,8.67
2018-08-31T10:34:45.825Z,8.00
2018-08-31T10:37:14.662Z,7.60
2018-08-31T10:39:43.507Z,7.87
2018-08-31T10:42:12.282Z,7.70
2018-08-31T10:44:41.140Z,9.30
2018-08-31T10:47:10.957Z,8.73
2018-08-31T10:49:39.871Z,9.87
2018-08-31T10:52:08.773Z,8.60
2018-08-31T10:54:37.891Z,8.53
2018-08-31T10:57:06.718Z,7.37
2018-08-31T10:59:35.587Z,8.70
2018-08-31T11:02:04.427Z,8.23
2018-08-31T11:04:33.218Z,9.13
2018-08-31T11:07:02.034Z,11.00
2018-08-31T11:09:32.420Z,8.20
2018-08-31T11:12:01.227Z,8.70
2018-08-31T11:14:30.006Z,10.40
2018-08-31T11:17:00.678Z,9.23
2018-08-31T11:19:29.500Z,8.13
2018-08-31T11:21:58.301Z,9.77
2018-08-31T11:24:28.934Z,8.90
2018-08-31T11:26:57.750Z,8.60
2018-08-31T11:29:26.547Z,10.03
2018-08-31T11:31:56.382Z,10.57
2018-08-31T11:34:25.174Z,8.40
2018-08-31T11:36:53.937Z,32.60
2018-08-31T11:39:23.414Z,16.40
2018-08-31T11:41:52.275Z,8.20
2018-08-31T11:44:21.129Z,7.70
2018-08-31T11:46:50.750Z,8.40
2018-08-31T11:49:19.533Z,8.50
2018-08-31T11:51:48.351Z,7.73
2018-08-31T11:54:18.186Z,7.63
2018-08-31T11:56:46.975Z,8.50
2018-08-31T11:59:15.753Z,8.30
2018-08-31T12:01:44.587Z,7.90
2018-08-31T12:04:13.350Z,7.93
2018-08-31T12:06:42.151Z,8.67
2018-08-31T12:09:11.883Z,8.60
2018-08-31T12:11:40.713Z,8.03
2018-08-31T12:14:09.608Z,8.27
2018-08-31T12:16:38.475Z,8.10
2018-08-31T12:19:07.409Z,8.40
2018-08-31T12:21:36.193Z,8.03
2018-08-31T12:24:05.323Z,8.07
2018-08-31T12:26:34.140Z,7.83
2018-08-31T12:29:03.011Z,12.70
2018-08-31T12:31:32.932Z,9.23
2018-08-31T12:34:02.033Z,7.90
2018-08-31T12:36:30.867Z,8.80
2018-08-31T12:39:00.422Z,9.60
2018-08-31T12:41:29.201Z,8.37
2018-08-31T12:43:58.139Z,8.47
2018-08-31T12:46:28.240Z,9.17
2018-08-31T12:48:57.039Z,9.20
2018-08-31T12:51:25.871Z,9.63
2018-08-31T12:53:56.542Z,9.03
2018-08-31T12:56:25.401Z,8.73
2018-08-31T12:58:54.169Z,9.70
2018-08-31T13:01:23.035Z,11.33
2018-08-31T13:03:51.865Z,9.10
2018-08-31T13:06:20.639Z,8.20
2018-08-31T13:08:49.985Z,8.37
2018-08-31T13:11:18.776Z,8.37
2018-08-31T13:13:47.810Z,8.50
2018-08-31T13:16:17.012Z,8.67
2018-08-31T13:18:45.829Z,8.97
2018-08-31T13:21:14.619Z,8.70
2018-08-31T13:23:44.925Z,9.47
2018-08-31T13:26:13.753Z,9.43
2018-08-31T13:28:42.559Z,8.70
2018-08-31T13:31:12.886Z,9.00
2018-08-31T13:33:42.680Z,10.53
2018-08-31T13:36:11.444Z,9.23
2018-08-31T13:38:41.424Z,9.27
2018-08-31T13:41:10.217Z,10.07
2018-08-31T13:43:39.066Z,9.13
2018-08-31T13:46:08.585Z,9.43
2018-08-31T13:48:37.892Z,8.80
2018-08-31T13:51:07.537Z,9.80
2018-08-31T13:53:36.926Z,9.63
2018-08-31T13:56:07.253Z,10.00
2018-08-31T13:58:36.930Z,9.73
2018-08-31T14:01:08.343Z,10.60
2018-08-31T14:03:37.624Z,10.30
2018-08-31T14:06:06.870Z,14.97
2018-08-31T14:08:36.450Z,10.83
2018-08-31T14:11:06.351Z,10.67
2018-08-31T14:13:35.630Z,9.80
2018-08-31T14:16:05.413Z,12.17
2018-08-31T14:18:35.390Z,10.70
2018-08-31T14:21:05.612Z,10.83
2018-08-31T14:23:34.878Z,10.67
2018-08-31T14:26:04.706Z,10.93
2018-08-31T14:28:34.678Z,10.10
2018-08-31T14:31:04.609Z,10.00
2018-08-31T14:33:34.255Z,11.03
2018-08-31T14:36:03.800Z,10.63
2018-08-31T14:38:33.680Z,11.97
2018-08-31T14:41:02.776Z,10.27
2018-08-31T14:43:32.912Z,11.30
2018-08-31T14:46:04.916Z,10.70
2018-08-31T14:48:35.015Z,10.40
2018-08-31T14:51:03.976Z,10.57
2018-08-31T14:53:32.758Z,10.63
2018-08-31T14:56:01.662Z,11.43
2018-08-31T14:58:31.864Z,10.87
2018-08-31T15:01:03.080Z,10.57
2018-08-31T15:03:33.554Z,10.63
2018-08-31T15:06:03.756Z,10.50
2018-08-31T15:08:34.111Z,10.27
2018-08-31T15:11:03.496Z,10.20
2018-08-31T15:13:33.489Z,10.33
2018-08-31T15:16:03.177Z,11.17
2018-08-31T15:18:33.522Z,11.13
2018-08-31T15:21:02.962Z,12.53
2018-08-31T15:23:32.450Z,10.60
2018-08-31T15:26:02.091Z,12.27
2018-08-31T15:28:31.752Z,12.27
2018-08-31T15:31:00.948Z,11.70
2018-08-31T15:33:35.024Z,11.40
2018-08-31T15:36:05.190Z,11.50
2018-08-31T15:38:35.059Z,11.07
2018-08-31T15:41:05.108Z,11.60
2018-08-31T15:43:34.743Z,13.93
2018-08-31T15:46:04.274Z,10.73
2018-08-31T15:48:33.890Z,11.87
2018-08-31T15:51:04.335Z,11.27
2018-08-31T15:53:34.675Z,11.07
2018-08-31T15:56:04.712Z,11.60
2018-08-31T15:58:35.069Z,11.63
2018-08-31T16:01:04.882Z,12.00
2018-08-31T16:03:36.185Z,12.10
2018-08-31T16:06:05.211Z,11.23
2018-08-31T16:08:35.984Z,12.43
2018-08-31T16:11:06.482Z,11.67
2018-08-31T16:13:35.565Z,12.20
2018-08-31T16:16:05.883Z,12.40
2018-08-31T16:18:36.184Z,14.03
2018-08-31T16:21:06.102Z,11.87
2018-08-31T16:23:36.473Z,13.53
2018-08-31T16:26:07.795Z,13.17
2018-08-31T16:28:37.197Z,13.23
2018-08-31T16:31:07.175Z,13.77
2018-08-31T16:33:37.575Z,13.97
2018-08-31T16:36:07.004Z,13.93
2018-08-31T16:38:38.883Z,13.90
2018-08-31T16:41:09.309Z,12.77
2018-08-31T16:43:38.582Z,14.13
2018-08-31T16:46:08.528Z,14.13
2018-08-31T16:48:38.822Z,13.43
2018-08-31T16:51:08.967Z,13.10
2018-08-31T16:53:39.937Z,14.50
2018-08-31T16:56:10.232Z,12.97
2018-08-31T16:58:40.702Z,13.17
2018-08-31T17:01:10.191Z,13.53
2018-08-31T17:03:39.247Z,12.80
2018-08-31T17:06:08.890Z,12.40
2018-08-31T17:08:38.648Z,12.67
2018-08-31T17:11:09.753Z,12.70
2018-08-31T17:13:40.977Z,13.13
2018-08-31T17:16:10.029Z,13.17
2018-08-31T17:18:41.950Z,18.30
2018-08-31T17:21:12.245Z,12.20
2018-08-31T17:23:46.077Z,12.53
2018-08-31T17:26:21.343Z,12.87
2018-08-31T17:28:57.546Z,16.27
2018-08-31T17:31:32.193Z,16.57
2018-08-31T17:34:08.856Z,13.60
2018-08-31T17:36:43.692Z,14.47
2018-08-31T17:39:15.829Z,14.57
2018-08-31T17:41:46.906Z,14.80
2018-08-31T17:44:16.610Z,15.87
2018-08-31T17:46:46.538Z,15.23
2018-08-31T17:49:16.647Z,16.10
2018-08-31T17:51:47.256Z,14.50
2018-08-31T17:54:17.019Z,14.80
2018-08-31T17:56:47.133Z,13.67
2018-08-31T18:01:40.607Z,14.47
2018-08-31T18:04:09.832Z,13.90
2018-08-31T18:06:38.645Z,13.90
2018-08-31T18:09:08.011Z,14.07
2018-08-31T18:11:37.059Z,13.47
2018-08-31T18:14:05.964Z,14.20
2018-08-31T18:16:34.913Z,14.43
2018-08-31T18:19:03.691Z,14.37
2018-08-31T18:21:32.538Z,15.37
2018-08-31T18:24:01.330Z,13.37
2018-08-31T18:26:31.149Z,13.90
2018-08-31T18:29:00.211Z,14.90
2018-08-31T18:31:28.998Z,13.80
2018-08-31T18:33:57.822Z,13.30
2018-08-31T18:36:26.696Z,13.77
2018-08-31T18:38:55.479Z,14.73
2018-08-31T18:41:24.535Z,37.40
2018-08-31T18:43:53.357Z,19.67
2018-08-31T18:46:22.288Z,19.50
2018-08-31T18:48:51.325Z,13.83
2018-08-31T18:51:20.182Z,15.73
2018-08-31T18:53:49.041Z,14.70
2018-08-31T18:56:18.117Z,14.70
2018-08-31T18:58:46.912Z,14.83
2018-08-31T19:01:15.700Z,14.47
2018-08-31T19:03:45.965Z,13.20
2018-08-31T19:06:14.809Z,12.90
2018-08-31T19:08:43.611Z,14.70
2018-08-31T19:11:14.738Z,13.70
2018-08-31T19:13:43.513Z,13.40
2018-08-31T19:16:12.358Z,13.87
2018-08-31T19:18:42.068Z,14.20
2018-08-31T19:21:10.881Z,14.50
2018-08-31T19:23:39.664Z,15.03
2018-08-31T19:26:08.532Z,14.87
2018-08-31T19:28:37.340Z,13.27
2018-08-31T19:31:06.221Z,14.37
2018-08-31T19:33:35.082Z,14.67
2018-08-31T19:36:03.883Z,14.03
2018-08-31T19:38:32.774Z,13.43
2018-08-31T19:41:02.894Z,14.10
2018-08-31T19:43:31.707Z,14.17
2018-08-31T19:46:00.594Z,14.93
2018-08-31T19:48:30.416Z,14.57
2018-08-31T19:50:59.222Z,15.00
2018-08-31T19:53:28.140Z,13.60
2018-08-31T19:55:57.012Z,14.27
2018-08-31T19:58:25.825Z,12.93
2018-08-31T20:00:54.660Z,13.83
2018-08-31T20:03:24.520Z,14.60
2018-08-31T20:05:53.335Z,14.07
2018-08-31T20:08:22.177Z,13.97
2018-08-31T20:10:51.820Z,13.67
2018-08-31T20:13:20.684Z,13.33
2018-08-31T20:15:49.566Z,13.10
2018-08-31T20:18:18.757Z,14.97
2018-08-31T20:20:47.540Z,13.67
2018-08-31T20:23:16.336Z,13.40
2018-08-31T20:25:45.484Z,13.33
2018-08-31T20:28:13.898Z,13.93
2018-08-31T20:30:42.697Z,12.30
2018-08-31T20:33:11.736Z,13.70
2018-08-31T20:35:40.662Z,12.70
2018-08-31T20:38:10.337Z,14.00
2018-08-31T20:40:39.892Z,13.40
2018-08-31T20:43:09.022Z,13.67
2018-08-31T20:45:38.017Z,13.70
2018-08-31T20:48:08.297Z,13.67
2018-08-31T20:50:39.078Z,13.67
2018-08-31T20:53:08.318Z,13.77
2018-08-31T20:55:37.746Z,12.67
2018-08-31T20:58:07.926Z,14.20
2018-08-31T21:00:46.544Z,14.87
2018-08-31T21:03:16.840Z,14.67
2018-08-31T21:05:51.572Z,12.83
2018-08-31T21:08:23.038Z,12.87
2018-08-31T21:10:52.189Z,14.03
2018-08-31T21:13:21.098Z,13.47
2018-08-31T21:15:51.494Z,12.87
2018-08-31T21:18:21.583Z,12.80
2018-08-31T21:20:51.852Z,12.93
2018-08-31T21:23:22.654Z,12.90
2018-08-31T21:25:52.891Z,15.37
2018-08-31T21:28:24.065Z,13.50
2018-08-31T21:30:54.083Z,13.40
2018-08-31T21:33:23.544Z,13.37
2018-08-31T21:36:09.249Z,14.73
2018-08-31T21:38:38.489Z,12.40
2018-08-31T21:41:07.693Z,12.23
2018-08-31T21:43:37.418Z,13.70
2018-08-31T21:46:07.412Z,13.87
2018-08-31T21:48:36.870Z,12.57
2018-08-31T21:51:07.141Z,11.40
2018-08-31T21:53:36.525Z,13.53
2018-08-31T21:56:06.001Z,13.60
2018-08-31T21:58:35.317Z,12.40
2018-08-31T22:01:10.190Z,13.63
2018-08-31T22:03:43.398Z,12.57
2018-08-31T22:06:12.993Z,12.50
2018-08-31T22:08:42.879Z,14.27
2018-08-31T22:11:14.431Z,13.10
2018-08-31T22:13:44.628Z,12.70
2018-08-31T22:16:17.200Z,12.47
2018-08-31T22:18:46.665Z,13.20
2018-08-31T22:21:17.142Z,13.20
2018-08-31T22:23:47.408Z,12.83
2018-08-31T22:26:17.013Z,13.70
2018-08-31T22:28:47.687Z,14.57
2018-08-31T22:31:18.511Z,12.53
2018-08-31T22:33:50.925Z,13.00
2018-08-31T22:36:20.691Z,12.50
2018-08-31T22:38:50.681Z,13.27
2018-08-31T22:41:21.407Z,12.47
2018-08-31T22:43:52.448Z,13.67
2018-08-31T22:46:28.735Z,13.37
2018-08-31T22:48:57.980Z,14.47
2018-08-31T22:51:28.097Z,13.57
2018-08-31T22:53:58.886Z,14.17
2018-08-31T22:56:28.900Z,13.23
2018-08-31T22:58:58.877Z,12.67
2018-08-31T23:01:27.681Z,12.97
2018-08-31T23:03:56.624Z,13.67
2018-08-31T23:06:25.683Z,13.10
2018-08-31T23:08:54.490Z,12.70
2018-08-31T23:11:23.297Z,14.17
2018-08-31T23:13:52.745Z,13.10
2018-08-31T23:16:21.578Z,13.93
2018-08-31T23:18:50.405Z,14.17
2018-08-31T23:21:18.846Z,12.63
2018-08-31T23:23:48.975Z,13.87
2018-08-31T23:26:18.362Z,12.53
2018-08-31T23:28:47.170Z,14.50
2018-08-31T23:31:16.000Z,13.77
2018-08-31T23:33:44.774Z,12.43
2018-08-31T23:36:14.552Z,15.80
2018-08-31T23:38:43.343Z,13.13
2018-08-31T23:41:12.112Z,12.37
2018-08-31T23:43:41.285Z,13.20
2018-08-31T23:46:10.111Z,13.67
2018-08-31T23:48:38.983Z,13.07
2018-08-31T23:51:08.687Z,14.60
2018-08-31T23:53:37.537Z,12.40
2018-08-31T23:56:06.422Z,13.40
2018-08-31T23:58:37.197Z,11.90
